Time;durP1;ratioP1;P1;durP2;ratioP2;P2;SDS_P1;SDS_P2;PMS_P1;PMS_P2;Temp;Humidity;BMP_temperature;BMP_pressure;BME280_temperature;BME280_humidity;BME280_pressure;Samples;Min_cycle;Max_cycle;Signal;HPM_P1;HPM_P2
2023/01/30 00:00:57;;;;;;;34.42;12.73;;;;;;;-1.76;87.14;98570.91;5306336;27;20040;-80
2023/01/30 00:03:24;;;;;;;36.35;13.43;;;;;;;-1.78;88.28;98562.44;5306760;27;20037;-80
2023/01/30 00:05:51;;;;;;;35.78;12.70;;;;;;;-1.53;87.20;98547.59;5325856;27;20071;-80
2023/01/30 00:08:18;;;;;;;36.45;13.07;;;;;;;-1.55;88.16;98547.56;5325835;27;20052;-80
2023/01/30 00:10:46;;;;;;;30.52;12.80;;;;;;;-1.47;88.37;98547.69;5325322;27;20400;-80
2023/01/30 00:13:13;;;;;;;32.83;12.27;;;;;;;-1.37;88.06;98546.97;5306746;27;20064;-80
2023/01/30 00:15:41;;;;;;;30.48;11.98;;;;;;;-1.31;87.51;98547.03;5326545;27;20063;-80
2023/01/30 00:18:08;;;;;;;31.92;11.75;;;;;;;-1.35;88.11;98544.47;5306317;27;20400;-80
2023/01/30 00:20:35;;;;;;;31.48;11.93;;;;;;;-1.38;87.54;98531.75;5326116;27;20026;-80
2023/01/30 00:23:03;;;;;;;30.45;12.30;;;;;;;-1.47;88.83;98530.81;5326390;27;20412;-80
2023/01/30 00:25:30;;;;;;;35.25;13.68;;;;;;;-1.25;88.29;98529.41;5306408;27;20073;-80
2023/01/30 00:28:01;;;;;;;31.17;13.15;;;;;;;-0.93;85.06;98527.22;5326710;27;20064;-80
2023/01/30 00:30:28;;;;;;;31.15;13.27;;;;;;;-0.78;83.72;98526.50;5306605;27;20044;-80
2023/01/30 00:32:56;;;;;;;30.55;12.43;;;;;;;-0.88;84.08;98524.72;5325936;27;20061;-80
2023/01/30 00:35:27;;;;;;;32.08;12.05;;;;;;;-1.06;84.70;98522.87;5326031;27;20079;-80
2023/01/30 00:37:56;;;;;;;32.55;12.55;;;;;;;-1.07;85.25;98526.19;5307364;27;20053;-80
2023/01/30 00:40:24;;;;;;;34.33;13.30;;;;;;;-1.08;85.70;98524.50;5325461;27;20184;-80
2023/01/30 00:48:29;;;;;;;33.25;13.15;;;;;;;-1.29;86.16;98529.31;5326729;27;20029;-80
2023/01/30 00:50:58;;;;;;;32.83;13.10;;;;;;;-0.97;84.05;98519.56;5306994;27;20052;-80
2023/01/30 00:53:25;;;;;;;29.92;11.93;;;;;;;-1.02;83.74;98518.66;5326867;27;20061;-80
2023/01/30 00:55:52;;;;;;;34.92;13.98;;;;;;;-1.04;82.82;98512.75;5326873;27;20423;-80
2023/01/30 00:58:21;;;;;;;31.30;12.18;;;;;;;-0.93;82.03;98514.56;5326736;27;20414;-80
2023/01/30 01:00:48;;;;;;;29.67;12.30;;;;;;;-0.96;82.27;98512.00;5306322;27;20096;-80
2023/01/30 01:03:15;;;;;;;31.73;11.45;;;;;;;-0.97;81.96;98511.97;5326507;27;20040;-80
2023/01/30 01:05:43;;;;;;;33.13;13.85;;;;;;;-0.99;81.41;98508.56;5326757;27;20107;-80
2023/01/30 01:08:10;;;;;;;31.37;12.95;;;;;;;-1.14;81.90;98510.94;5326247;27;20552;-80
2023/01/30 01:10:37;;;;;;;30.67;11.80;;;;;;;-1.07;82.30;98513.53;5326697;27;20040;-80
2023/01/30 01:13:05;;;;;;;29.42;11.60;;;;;;;-1.36;83.87;98505.63;5326521;27;20061;-80
2023/01/30 01:15:32;;;;;;;30.17;11.80;;;;;;;-1.15;83.40;98499.97;5326425;27;20052;-80
2023/01/30 01:17:59;;;;;;;29.50;12.13;;;;;;;-1.36;83.94;98492.97;5326728;27;20052;-80
2023/01/30 01:20:26;;;;;;;32.78;12.73;;;;;;;-1.27;84.43;98484.66;5326579;27;20057;-80
2023/01/30 01:22:55;;;;;;;29.52;11.82;;;;;;;-1.30;84.65;98485.44;5326360;27;20067;-80
2023/01/30 01:25:23;;;;;;;32.67;12.23;;;;;;;-1.35;85.23;98484.56;5326212;27;20067;-80
2023/01/30 01:27:49;;;;;;;34.22;12.10;;;;;;;-1.36;85.61;98487.06;5326890;27;20510;-80
2023/01/30 01:30:17;;;;;;;29.35;11.35;;;;;;;-1.32;84.84;98482.03;5325947;27;20053;-80
2023/01/30 01:32:44;;;;;;;31.27;12.02;;;;;;;-1.43;85.01;98475.16;5306935;27;20065;-80
2023/01/30 01:35:11;;;;;;;26.83;11.57;;;;;;;-1.52;84.32;98476.75;5325681;27;20784;-81
2023/01/30 01:37:38;;;;;;;28.25;11.80;;;;;;;-1.17;82.95;98481.34;5326460;27;20053;-80
2023/01/30 01:42:51;;;;;;;32.42;12.57;;;;;;;-1.61;84.76;98473.25;5325992;27;20410;-80
2023/01/30 01:45:23;;;;;;;30.33;11.57;;;;;;;-1.59;85.09;98467.41;5326055;27;20090;-80
2023/01/30 01:47:59;;;;;;;34.17;13.52;;;;;;;-1.46;84.61;98471.78;5306945;27;20053;-80
2023/01/30 01:50:39;;;;;;;34.35;13.18;;;;;;;-1.50;84.70;98466.63;5325783;27;20049;-80
2023/01/30 01:53:07;;;;;;;31.15;12.48;;;;;;;-1.56;85.10;98462.37;5306764;27;20190;-80
2023/01/30 01:55:34;;;;;;;32.33;12.25;;;;;;;-1.48;84.79;98463.31;5307065;27;20828;-80
2023/01/30 01:58:24;;;;;;;31.00;12.13;;;;;;;-1.72;84.68;98457.09;5306454;27;20411;-80
2023/01/30 02:00:51;;;;;;;34.13;11.98;;;;;;;-1.62;85.04;98458.91;5326169;27;20049;-80
2023/01/30 02:03:22;;;;;;;30.48;11.93;;;;;;;-1.49;84.11;98446.44;5326009;27;20102;-80
2023/01/30 02:05:51;;;;;;;32.65;11.57;;;;;;;-1.48;83.68;98444.75;5326574;27;20103;-80
2023/01/30 02:08:36;;;;;;;33.42;12.40;;;;;;;-1.76;84.32;98446.09;5306915;27;20465;-80
2023/01/30 02:11:22;;;;;;;32.08;12.63;;;;;;;-1.49;83.38;98448.97;5306361;27;20059;-80
2023/01/30 02:13:49;;;;;;;32.33;12.40;;;;;;;-1.82;83.87;98441.78;5326420;27;20057;-80
2023/01/30 02:16:17;;;;;;;27.70;11.50;;;;;;;-1.87;84.68;98438.37;5326376;27;20060;-80
2023/01/30 02:18:44;;;;;;;27.95;11.20;;;;;;;-1.83;84.59;98434.19;5306779;27;20048;-80
2023/01/30 02:21:44;;;;;;;32.92;12.05;;;;;;;-1.97;84.46;98430.66;5306744;27;20045;-80
2023/01/30 02:24:42;;;;;;;31.27;12.07;;;;;;;-1.88;84.40;98434.16;5306546;27;20119;-81
2023/01/30 02:27:09;;;;;;;32.28;12.10;;;;;;;-2.18;85.83;98427.00;5326152;27;20057;-80
2023/01/30 02:29:47;;;;;;;35.33;12.82;;;;;;;-2.47;88.06;98416.47;5326314;27;20446;-80
2023/01/30 02:32:53;;;;;;;30.20;11.85;;;;;;;-2.25;87.22;98415.09;5326146;27;20056;-80
2023/01/30 02:35:42;;;;;;;32.50;11.90;;;;;;;-1.97;85.09;98413.81;5314902;27;20065;-80
2023/01/30 02:38:09;;;;;;;30.90;11.10;;;;;;;-1.92;85.96;98399.53;5325928;27;20075;-81
2023/01/30 02:40:52;;;;;;;30.02;11.63;;;;;;;-2.00;86.27;98396.06;5325980;27;20053;-80
2023/01/30 02:43:27;;;;;;;30.88;12.18;;;;;;;-2.14;87.42;98400.06;5326644;27;20089;-80
2023/01/30 02:46:20;;;;;;;30.23;11.02;;;;;;;-1.87;86.95;98386.94;5306569;27;20065;-80
2023/01/30 02:48:58;;;;;;;30.05;12.23;;;;;;;-1.82;86.53;98385.31;5307369;27;20036;-80
2023/01/30 02:51:29;;;;;;;29.08;11.93;;;;;;;-1.92;87.02;98383.50;5326474;27;20048;-80
2023/01/30 02:53:56;;;;;;;33.22;12.52;;;;;;;-2.28;88.08;98376.31;5307091;27;20080;-80
2023/01/30 02:56:23;;;;;;;35.95;13.23;;;;;;;-1.99;87.31;98369.94;5306598;27;20704;-80
2023/01/30 02:59:05;;;;;;;27.90;11.43;;;;;;;-2.15;87.81;98368.03;5326351;27;20057;-80
2023/01/30 03:01:50;;;;;;;32.17;12.52;;;;;;;-2.22;87.80;98367.12;5306345;27;20097;-80
2023/01/30 03:04:42;;;;;;;33.53;12.52;;;;;;;-2.15;87.61;98360.47;5326511;27;20048;-80
2023/01/30 03:07:17;;;;;;;30.40;12.48;;;;;;;-2.31;88.16;98351.84;5326937;27;20099;-80
2023/01/30 03:10:09;;;;;;;30.37;12.05;;;;;;;-2.42;89.03;98350.88;5326793;27;20112;-80
2023/01/30 03:12:51;;;;;;;33.63;12.85;;;;;;;-2.47;88.92;98355.00;5327037;27;20112;-80
2023/01/30 03:15:27;;;;;;;37.97;14.65;;;;;;;-2.95;91.31;98354.31;5307011;27;20045;-80
2023/01/30 03:17:54;;;;;;;34.03;13.98;;;;;;;-2.63;90.90;98349.75;5326709;27;20083;-80
2023/01/30 03:20:21;;;;;;;41.00;14.38;;;;;;;-2.71;92.11;98345.41;5307022;27;20114;-80
2023/01/30 03:22:49;;;;;;;33.15;13.30;;;;;;;-2.95;94.99;98339.16;5326861;27;20554;-80
2023/01/30 03:25:20;;;;;;;33.85;13.43;;;;;;;-2.40;92.32;98344.16;5327040;27;20071;-80
2023/01/30 03:27:49;;;;;;;38.45;14.07;;;;;;;-2.63;93.16;98339.63;5326177;27;20532;-80
2023/01/30 03:30:17;;;;;;;34.22;14.00;;;;;;;-2.64;93.11;98325.31;5326840;27;20072;-80
2023/01/30 03:32:44;;;;;;;37.20;14.00;;;;;;;-2.51;93.05;98333.03;5326860;27;20098;-80
2023/01/30 03:35:11;;;;;;;37.13;14.25;;;;;;;-2.75;95.01;98328.50;5326249;27;20426;-80
2023/01/30 03:37:38;;;;;;;35.75;14.25;;;;;;;-2.48;93.46;98317.91;5326996;27;20068;-80
2023/01/30 03:40:06;;;;;;;38.17;13.65;;;;;;;-2.40;92.44;98322.25;5326745;27;20120;-80
2023/01/30 03:42:32;;;;;;;36.05;15.35;;;;;;;-2.65;92.75;98321.09;5326059;27;20056;-80
2023/01/30 03:44:59;;;;;;;37.72;14.32;;;;;;;-2.38;91.74;98317.22;5326248;27;20048;-80
2023/01/30 03:47:26;;;;;;;37.72;14.40;;;;;;;-2.60;91.62;98316.09;5326491;27;20056;-80
2023/01/30 03:49:53;;;;;;;35.55;13.23;;;;;;;-2.62;92.96;98311.00;5325621;27;20067;-80
2023/01/30 03:52:20;;;;;;;36.15;12.93;;;;;;;-2.61;93.71;98314.38;5326575;27;20396;-80
2023/01/30 03:54:47;;;;;;;34.90;13.30;;;;;;;-2.44;92.49;98309.56;5326518;27;20052;-80
2023/01/30 03:57:14;;;;;;;33.58;13.62;;;;;;;-2.58;93.33;98309.37;5306318;27;20057;-80
2023/01/30 03:59:41;;;;;;;38.85;14.73;;;;;;;-2.46;92.23;98306.16;5326011;27;20061;-80
2023/01/30 04:02:08;;;;;;;34.00;13.15;;;;;;;-2.35;91.92;98310.50;5326101;27;20063;-80
2023/01/30 04:04:35;;;;;;;35.65;14.50;;;;;;;-2.40;91.65;98308.78;5306409;27;20406;-80
2023/01/30 04:07:02;;;;;;;32.78;12.93;;;;;;;-2.67;93.70;98307.56;5326293;27;20061;-80
2023/01/30 04:09:29;;;;;;;35.45;13.98;;;;;;;-2.65;93.31;98297.50;5325591;27;20057;-80
2023/01/30 04:11:57;;;;;;;36.63;14.10;;;;;;;-2.69;93.37;98298.28;5326312;27;20109;-80
2023/01/30 04:14:23;;;;;;;35.85;12.93;;;;;;;-2.63;93.44;98293.31;5326557;27;20020;-80
2023/01/30 04:16:50;;;;;;;34.10;12.95;;;;;;;-2.41;92.40;98291.91;5325285;27;20072;-80
2023/01/30 04:19:17;;;;;;;32.17;12.43;;;;;;;-2.44;91.81;98302.84;5326099;27;20100;-80
2023/01/30 04:21:44;;;;;;;33.13;12.73;;;;;;;-2.40;91.71;98291.06;5326253;27;20035;-80
2023/01/30 04:24:11;;;;;;;32.30;13.45;;;;;;;-2.30;90.74;98285.31;5326143;27;20094;-80
2023/01/30 04:26:38;;;;;;;34.28;12.93;;;;;;;-2.67;91.64;98282.31;5326701;27;20452;-80
2023/01/30 04:29:05;;;;;;;32.45;12.88;;;;;;;-2.86;94.53;98277.84;5326947;27;20037;-80
2023/01/30 04:31:32;;;;;;;33.50;11.75;;;;;;;-2.55;92.02;98284.16;5326205;27;20052;-80
2023/01/30 04:33:59;;;;;;;33.47;12.82;;;;;;;-2.68;91.71;98287.34;5307092;27;20055;-80
2023/01/30 04:36:28;;;;;;;31.92;12.37;;;;;;;-2.36;90.99;98272.59;5326580;27;20065;-80
2023/01/30 04:38:57;;;;;;;31.40;11.12;;;;;;;-1.98;89.32;98279.75;5326318;27;20060;-80
2023/01/30 04:41:24;;;;;;;35.20;13.55;;;;;;;-2.19;89.43;98272.78;5327316;27;20514;-80
2023/01/30 04:43:51;;;;;;;30.50;11.68;;;;;;;-2.30;90.76;98275.19;5326876;27;20094;-80
2023/01/30 04:46:18;;;;;;;30.60;11.85;;;;;;;-2.04;89.46;98265.38;5326374;27;20036;-80
2023/01/30 04:48:45;;;;;;;33.35;11.98;;;;;;;-2.06;89.34;98269.56;5326397;27;20388;-80
2023/01/30 04:51:13;;;;;;;30.17;11.85;;;;;;;-2.28;90.94;98260.88;5326668;27;20052;-80
2023/01/30 04:53:40;;;;;;;31.40;12.27;;;;;;;-2.21;90.61;98259.28;5325986;27;20059;-80
2023/01/30 04:56:07;;;;;;;34.22;12.82;;;;;;;-2.37;91.48;98254.03;5326291;27;20060;-80
2023/01/30 04:58:34;;;;;;;28.73;11.70;;;;;;;-2.32;92.30;98249.06;5325789;27;20053;-80
2023/01/30 05:01:20;;;;;;;31.67;12.32;;;;;;;-2.42;92.96;98243.06;5326042;27;20052;-80
2023/01/30 05:03:53;;;;;;;31.27;11.95;;;;;;;-2.44;93.25;98244.72;5306504;27;20113;-80
2023/01/30 05:06:21;;;;;;;30.85;12.50;;;;;;;-2.23;93.61;98243.25;5325796;27;20155;-80
2023/01/30 05:08:49;;;;;;;29.25;12.15;;;;;;;-2.28;93.23;98244.88;5306409;27;20713;-80
2023/01/30 05:11:17;;;;;;;30.52;11.70;;;;;;;-2.18;92.98;98242.47;5325788;27;20536;-80
2023/01/30 05:13:44;;;;;;;32.30;13.13;;;;;;;-2.15;92.72;98234.91;5325458;27;20557;-80
2023/01/30 05:16:11;;;;;;;28.42;11.82;;;;;;;-2.04;92.56;98229.97;5325951;27;20431;-80
2023/01/30 05:18:38;;;;;;;32.88;12.63;;;;;;;-2.19;93.01;98228.13;5325579;27;20025;-80
2023/01/30 05:21:07;;;;;;;31.62;12.77;;;;;;;-2.41;94.85;98224.53;5325122;27;20114;-80
2023/01/30 05:23:35;;;;;;;32.10;12.43;;;;;;;-2.41;95.21;98232.13;5325774;27;20049;-80
2023/01/30 05:26:02;;;;;;;32.50;12.40;;;;;;;-2.33;94.38;98230.53;5325135;27;20109;-80
2023/01/30 05:28:29;;;;;;;33.13;12.32;;;;;;;-2.36;94.32;98227.94;5324943;27;20061;-80
2023/01/30 05:31:04;;;;;;;27.05;11.05;;;;;;;-2.51;94.60;98237.03;5325262;27;20052;-80
2023/01/30 05:33:31;;;;;;;33.97;13.00;;;;;;;-2.46;93.53;98232.87;5325150;27;20048;-81
2023/01/30 05:35:59;;;;;;;29.85;12.63;;;;;;;-2.63;94.29;98228.50;5325072;27;20065;-80
2023/01/30 05:38:26;;;;;;;32.53;12.88;;;;;;;-2.62;94.50;98227.66;5306103;27;20061;-80
2023/01/30 05:41:02;;;;;;;29.40;12.85;;;;;;;-2.83;96.34;98232.44;5325055;27;20761;-80
2023/01/30 05:43:30;;;;;;;33.70;13.90;;;;;;;-2.87;97.07;98228.19;5305961;27;20044;-80
2023/01/30 05:45:58;;;;;;;29.40;12.02;;;;;;;-3.05;99.93;98227.94;5325574;27;20056;-80
2023/01/30 05:48:27;;;;;;;34.97;12.82;;;;;;;-2.45;97.20;98229.50;5324637;27;20114;-80
2023/01/30 05:50:56;;;;;;;35.95;12.82;;;;;;;-2.49;97.22;98225.28;5325067;27;20110;-80
2023/01/30 05:53:26;;;;;;;32.67;14.52;;;;;;;-2.61;98.20;98225.97;5305576;27;20048;-80
2023/01/30 05:55:57;;;;;;;30.95;11.38;;;;;;;-2.91;100.00;98216.31;5305787;27;20102;-80
2023/01/30 05:58:24;;;;;;;35.05;14.25;;;;;;;-2.83;100.00;98221.50;5325096;27;20068;-80
2023/01/30 06:00:52;;;;;;;35.70;13.45;;;;;;;-2.71;100.00;98225.00;5325023;27;20448;-80
2023/01/30 06:03:19;;;;;;;34.97;13.60;;;;;;;-2.46;98.19;98220.25;5305644;27;20048;-80
2023/01/30 06:05:46;;;;;;;35.42;14.85;;;;;;;-2.67;98.51;98219.16;5305583;27;20040;-79
2023/01/30 06:08:13;;;;;;;36.53;13.32;;;;;;;-2.41;98.90;98223.69;5325104;27;20057;-80
2023/01/30 06:10:40;;;;;;;32.63;13.18;;;;;;;-2.42;98.51;98235.47;5324268;27;20178;-80
2023/01/30 06:13:09;;;;;;;34.10;13.55;;;;;;;-2.34;97.30;98241.47;5324286;27;20044;-80
2023/01/30 06:15:37;;;;;;;31.48;12.68;;;;;;;-2.22;96.28;98239.91;5324272;27;20327;-80
2023/01/30 06:18:04;;;;;;;32.70;12.55;;;;;;;-2.32;96.32;98233.91;5324307;27;20056;-80
2023/01/30 06:20:31;;;;;;;32.47;12.32;;;;;;;-2.55;96.89;98230.22;5324216;27;20398;-80
2023/01/30 06:22:57;;;;;;;32.38;12.37;;;;;;;-2.27;95.82;98223.81;5324013;27;20106;-80
2023/01/30 06:25:24;;;;;;;37.42;13.88;;;;;;;-2.25;94.33;98233.13;5325948;27;20057;-80
2023/01/30 06:27:51;;;;;;;32.22;13.05;;;;;;;-2.64;96.50;98228.47;5326775;27;20030;-79
2023/01/30 06:30:18;;;;;;;33.38;12.55;;;;;;;-2.48;96.70;98229.50;5328917;27;20029;-79
2023/01/30 06:32:49;;;;;;;36.35;14.35;;;;;;;-2.48;96.30;98227.81;5332923;27;20072;-80
2023/01/30 06:35:16;;;;;;;30.45;12.65;;;;;;;-2.36;95.57;98234.69;5327299;27;20115;-80
2023/01/30 06:37:44;;;;;;;34.40;13.13;;;;;;;-2.28;94.70;98237.31;5328243;27;20071;-80
2023/01/30 06:40:12;;;;;;;32.35;13.27;;;;;;;-2.14;93.82;98238.28;5327063;27;20371;-80
2023/01/30 06:42:43;;;;;;;34.92;13.93;;;;;;;-2.06;92.75;98222.38;5308828;27;20112;-80
2023/01/30 06:45:12;;;;;;;38.63;13.98;;;;;;;-2.07;92.85;98223.19;5337354;27;20064;-80
2023/01/30 06:47:50;;;;;;;31.80;13.18;;;;;;;-1.97;91.92;98230.88;5332933;27;20078;-80
2023/01/30 06:50:18;;;;;;;34.08;13.45;;;;;;;-2.14;93.94;98228.16;5316476;27;20107;-80
2023/01/30 06:52:47;;;;;;;38.28;14.60;;;;;;;-2.08;93.92;98220.66;5313396;27;20021;-80
2023/01/30 06:55:16;;;;;;;32.40;13.52;;;;;;;-1.83;92.97;98226.78;5328298;27;20465;-78
2023/01/30 06:57:44;;;;;;;35.08;13.88;;;;;;;-1.91;93.82;98233.47;5324354;27;20063;-79
2023/01/30 07:00:16;;;;;;;36.00;13.88;;;;;;;-1.65;92.98;98224.44;5324526;27;20127;-79
2023/01/30 07:02:44;;;;;;;36.17;13.93;;;;;;;-2.04;95.62;98223.22;5321722;27;20060;-79
2023/01/30 07:05:11;;;;;;;38.95;15.82;;;;;;;-1.92;97.96;98230.06;5324351;27;20056;-79
2023/01/30 07:07:38;;;;;;;37.67;14.93;;;;;;;-1.27;95.39;98223.91;5324563;27;20469;-80
2023/01/30 07:10:07;;;;;;;34.95;14.07;;;;;;;-0.66;92.71;98225.06;5324743;27;20044;-79
2023/01/30 07:12:35;;;;;;;29.27;12.75;;;;;;;-0.16;88.95;98219.34;5304512;27;20048;-79
2023/01/30 07:15:04;;;;;;;34.63;13.02;;;;;;;-0.15;88.41;98210.03;5324718;27;20060;-77
2023/01/30 07:17:31;;;;;;;27.90;11.60;;;;;;;0.10;87.17;98209.22;5324351;27;20057;-77
2023/01/30 07:19:58;;;;;;;30.02;12.63;;;;;;;-0.04;86.78;98213.44;5324011;27;20056;-78
2023/01/30 07:22:25;;;;;;;28.23;11.65;;;;;;;0.25;85.99;98216.87;5324462;27;20037;-80
2023/01/30 07:24:52;;;;;;;26.90;12.60;;;;;;;0.36;84.79;98208.44;5324415;27;20116;-79
2023/01/30 07:27:19;;;;;;;29.95;13.38;;;;;;;0.04;86.49;98201.63;5323716;27;20072;-79
2023/01/30 07:29:46;;;;;;;30.35;12.88;;;;;;;-0.23;87.95;98194.78;5324455;27;20107;-79
2023/01/30 07:32:17;;;;;;;27.85;12.30;;;;;;;0.12;88.12;98194.87;5324141;27;20048;-81
2023/01/30 07:34:44;;;;;;;27.27;12.23;;;;;;;1.02;86.23;98199.03;5323903;27;20069;-79
2023/01/30 07:37:11;;;;;;;27.55;12.75;;;;;;;1.32;82.82;98191.31;5324359;27;20088;-80
2023/01/30 07:39:38;;;;;;;27.87;11.75;;;;;;;1.77;80.35;98186.03;5324323;27;20048;-79
2023/01/30 07:42:05;;;;;;;26.15;12.15;;;;;;;1.42;82.19;98187.91;5323715;27;20513;-79
2023/01/30 07:44:33;;;;;;;26.45;12.30;;;;;;;1.76;82.21;98203.00;5304848;27;20064;-79
2023/01/30 07:47:00;;;;;;;27.95;12.18;;;;;;;1.57;81.21;98203.94;5323976;27;20071;-79
2023/01/30 07:49:27;;;;;;;33.08;15.00;;;;;;;1.36;82.26;98207.41;5324172;27;20105;-78
2023/01/30 07:51:54;;;;;;;30.83;14.85;;;;;;;1.15;84.22;98208.31;5323908;27;20402;-80
2023/01/30 07:54:21;;;;;;;33.60;13.75;;;;;;;0.99;84.54;98210.06;5323979;27;20103;-80
2023/01/30 07:56:47;;;;;;;;;;;;;;;0.91;85.30;98203.28;5324669;27;20391;-79
2023/01/30 07:59:14;;;;;;;31.40;12.23;;;;;;;0.80;84.92;98185.53;5324220;27;19964;-78
2023/01/30 08:01:41;;;;;;;32.67;13.55;;;;;;;0.58;87.16;98175.41;5304031;27;20045;-79
2023/01/30 08:04:08;;;;;;;;;;;;;;;0.67;87.68;98172.00;5324636;27;20423;-79
2023/01/30 08:06:37;;;;;;;29.45;12.93;;;;;;;0.91;86.57;98168.56;5324203;27;19972;-79
2023/01/30 08:09:05;;;;;;;30.05;13.93;;;;;;;1.18;85.18;98162.56;5323587;27;20131;-79
2023/01/30 08:11:33;;;;;;;27.98;12.25;;;;;;;1.20;85.17;98160.03;5304314;27;20049;-78
2023/01/30 08:14:00;;;;;;;29.87;12.20;;;;;;;1.12;83.70;98162.59;5324247;27;20060;-79
2023/01/30 08:16:27;;;;;;;28.15;12.50;;;;;;;0.55;86.05;98159.34;5323804;27;20404;-78
2023/01/30 08:18:54;;;;;;;28.98;12.85;;;;;;;0.22;89.56;98157.66;5324101;27;20067;-80
2023/01/30 08:21:21;;;;;;;28.70;12.52;;;;;;;0.17;90.87;98162.72;5324072;27;20045;-79
2023/01/30 08:23:48;;;;;;;27.15;11.52;;;;;;;0.47;89.42;98159.34;5325444;27;20110;-80
2023/01/30 08:26:15;;;;;;;28.00;11.32;;;;;;;0.38;89.44;98148.34;5327506;27;20402;-78
2023/01/30 08:28:42;;;;;;;27.77;11.80;;;;;;;0.15;90.25;98139.06;5325641;27;20029;-77
2023/01/30 08:31:09;;;;;;;;;;;;;;;0.06;91.60;98118.75;5324679;27;20472;-77
2023/01/30 08:33:36;;;;;;;27.73;12.63;;;;;;;0.02;92.65;98124.69;5324708;27;20011;-77
2023/01/30 08:36:04;;;;;;;25.45;11.32;;;;;;;-0.15;93.92;98108.59;5323558;27;20471;-82
2023/01/30 08:38:31;;;;;;;28.27;11.95;;;;;;;-0.01;93.63;98100.12;5325437;27;20070;-84
2023/01/30 08:40:59;;;;;;;31.83;13.35;;;;;;;0.24;92.48;98090.00;5329575;27;20476;-81
2023/01/30 08:43:26;;;;;;;27.80;11.80;;;;;;;0.25;91.54;98089.16;5329040;27;20060;-80
2023/01/30 08:45:54;;;;;;;26.27;11.38;;;;;;;0.28;92.00;98091.66;5329737;27;20097;-79
2023/01/30 08:48:21;;;;;;;30.77;11.68;;;;;;;0.58;92.12;98091.62;5323951;27;20063;-79
2023/01/30 08:50:52;;;;;;;32.03;12.20;;;;;;;0.99;89.65;98089.81;5323514;27;20052;-78
2023/01/30 08:53:20;;;;;;;23.87;10.52;;;;;;;1.37;86.54;98100.63;5304297;27;20060;-78
2023/01/30 08:55:51;;;;;;;27.73;11.73;;;;;;;1.40;84.89;98100.63;5324115;27;20075;-78
2023/01/30 08:58:21;;;;;;;28.83;11.80;;;;;;;1.02;87.17;98102.50;5323598;27;20068;-80
2023/01/30 09:00:49;;;;;;;26.10;11.82;;;;;;;1.11;87.04;98095.66;5328977;27;20048;-77
2023/01/30 09:03:17;;;;;;;28.02;11.80;;;;;;;1.02;88.61;98113.50;5324007;27;20056;-80
2023/01/30 09:05:44;;;;;;;29.95;12.68;;;;;;;0.80;89.51;98109.34;5324089;27;20128;-77
2023/01/30 09:08:12;;;;;;;29.77;13.45;;;;;;;0.77;89.71;98104.28;5324035;27;20135;-77
2023/01/30 09:10:38;;;;;;;28.27;12.75;;;;;;;0.85;89.92;98097.44;5323702;27;20057;-80
2023/01/30 09:13:08;;;;;;;26.10;11.88;;;;;;;0.78;89.38;98099.19;5323302;27;20114;-79
2023/01/30 09:15:35;;;;;;;26.45;11.93;;;;;;;0.88;88.59;98101.69;5324088;27;20061;-79
2023/01/30 09:18:03;;;;;;;31.73;13.25;;;;;;;0.74;89.91;98094.09;5324224;27;20118;-79
2023/01/30 09:20:30;;;;;;;29.85;13.20;;;;;;;0.90;89.87;98085.59;5325855;27;20045;-80
2023/01/30 09:22:58;;;;;;;29.52;12.48;;;;;;;0.90;89.77;98089.84;5331939;27;20040;-80
2023/01/30 09:25:25;;;;;;;28.92;12.85;;;;;;;0.58;89.74;98083.16;5326433;27;20072;-79
2023/01/30 09:27:52;;;;;;;28.65;13.23;;;;;;;0.96;89.24;98087.25;5329917;27;20074;-80
2023/01/30 09:30:19;;;;;;;29.10;12.93;;;;;;;1.04;88.80;98086.38;5331989;27;20024;-81
2023/01/30 09:32:47;;;;;;;31.20;13.77;;;;;;;0.93;88.48;98090.66;5308500;27;20032;-80
2023/01/30 09:35:14;;;;;;;33.00;13.50;;;;;;;0.91;89.58;98096.59;5327222;27;20565;-80
2023/01/30 09:37:51;;;;;;;31.83;13.68;;;;;;;0.81;90.94;98099.16;5328129;27;20080;-80
2023/01/30 09:40:24;;;;;;;34.60;14.45;;;;;;;1.21;89.55;98103.25;5327686;27;20041;-79
2023/01/30 09:43:09;;;;;;;34.00;14.10;;;;;;;1.21;89.61;98095.63;5309094;27;20072;-79
2023/01/30 09:45:46;;;;;;;28.15;13.45;;;;;;;1.19;89.92;98088.03;5330163;27;20150;-80
2023/01/30 09:48:19;;;;;;;28.43;13.57;;;;;;;1.11;90.29;98080.44;5309404;27;20771;-79
2023/01/30 09:50:56;;;;;;;32.17;13.32;;;;;;;0.85;90.59;98075.47;5326718;27;20183;-80
2023/01/30 09:53:35;;;;;;;33.72;14.60;;;;;;;0.76;91.86;98067.88;5328592;27;20057;-80
2023/01/30 09:56:03;;;;;;;35.13;13.90;;;;;;;0.96;91.35;98072.87;5324055;27;20035;-81
2023/01/30 09:58:53;;;;;;;34.95;14.70;;;;;;;1.10;90.17;98063.50;5324416;27;20052;-80
2023/01/30 10:01:59;;;;;;;33.10;14.30;;;;;;;1.10;89.89;98060.94;5296895;27;20048;-80
2023/01/30 10:04:39;;;;;;;30.92;13.52;;;;;;;1.35;89.44;98060.81;5324603;27;20061;-80
2023/01/30 10:07:33;;;;;;;33.67;14.77;;;;;;;1.32;89.54;98051.50;5311767;27;20124;-81
2023/01/30 10:10:22;;;;;;;34.63;14.80;;;;;;;1.72;88.80;98059.72;5332008;27;20759;-80
2023/01/30 10:12:53;;;;;;;28.05;12.90;;;;;;;2.08;86.55;98055.19;5331337;27;20056;-80
2023/01/30 10:15:42;;;;;;;30.02;13.23;;;;;;;2.23;85.47;98046.53;5309190;27;20065;-81
2023/01/30 10:18:12;;;;;;;27.70;12.20;;;;;;;2.36;83.82;98043.03;5327995;27;20445;-81
2023/01/30 10:20:51;;;;;;;26.05;12.13;;;;;;;2.44;83.38;98048.88;5327508;27;20057;-84
2023/01/30 10:23:24;;;;;;;27.45;13.07;;;;;;;2.25;82.91;98050.78;5304142;27;20087;-84
2023/01/30 10:26:02;;;;;;;27.65;12.50;;;;;;;2.40;82.73;98042.16;5324314;27;20106;-86
2023/01/30 10:28:34;;;;;;;28.73;13.38;;;;;;;2.43;82.02;98023.44;5304724;27;20643;-84
2023/01/30 10:31:07;;;;;;;29.17;11.80;;;;;;;2.41;82.32;98030.25;5324790;27;20029;-82
2023/01/30 10:33:43;;;;;;;29.37;13.48;;;;;;;2.34;81.80;98026.94;5310929;27;20102;-82
2023/01/30 10:36:14;;;;;;;25.73;12.15;;;;;;;1.98;84.62;98028.13;5330933;27;20072;-81
2023/01/30 10:38:50;;;;;;;28.08;13.55;;;;;;;1.99;85.00;98027.25;5324849;27;20036;-81
2023/01/30 10:41:41;;;;;;;27.87;12.80;;;;;;;2.29;84.52;98019.34;5329004;27;20062;-83
2023/01/30 10:44:11;;;;;;;27.60;11.90;;;;;;;2.69;81.00;98010.44;5311276;27;20048;-82
2023/01/30 10:47:00;;;;;;;24.98;12.30;;;;;;;2.57;81.48;97999.53;5304301;27;20068;-80
2023/01/30 10:49:41;;;;;;;27.08;11.63;;;;;;;2.79;81.09;97978.88;5322956;27;20430;-80
2023/01/30 10:52:35;;;;;;;24.67;11.68;;;;;;;3.23;80.65;97975.72;5323257;27;20048;-82
2023/01/30 10:55:34;;;;;;;24.67;10.52;;;;;;;4.00;74.93;97965.94;5323788;27;20388;-82
2023/01/30 10:58:41;;;;;;;24.20;10.23;;;;;;;4.36;70.31;97963.59;5324394;27;20122;-83
2023/01/30 11:01:16;;;;;;;21.35;9.50;;;;;;;4.23;69.45;97960.41;5331981;27;20029;-83
2023/01/30 11:03:47;;;;;;;24.45;10.15;;;;;;;4.22;71.23;97966.37;5337332;27;20031;-82
2023/01/30 11:06:17;;;;;;;23.58;10.35;;;;;;;4.19;69.52;97951.13;5309514;27;20185;-81
2023/01/30 11:08:44;;;;;;;22.42;10.05;;;;;;;4.16;71.43;97947.81;5304501;27;20117;-81
2023/01/30 11:11:42;;;;;;;21.95;10.20;;;;;;;3.98;71.64;97949.81;5303846;27;20060;-81
2023/01/30 11:14:10;;;;;;;23.12;10.57;;;;;;;4.01;70.10;97941.25;5304117;27;20403;-81
2023/01/30 11:16:54;;;;;;;22.98;9.57;;;;;;;3.68;71.40;97932.47;5323450;27;20052;-81
2023/01/30 11:19:30;;;;;;;21.83;10.18;;;;;;;3.36;72.41;97933.00;5323522;27;20074;-81
2023/01/30 11:22:02;;;;;;;23.08;10.18;;;;;;;3.63;72.33;97922.38;5305094;27;20098;-81
2023/01/30 11:24:31;;;;;;;23.80;10.13;;;;;;;3.36;71.94;97915.16;5324302;27;20067;-81
2023/01/30 11:27:23;;;;;;;23.38;10.38;;;;;;;3.69;71.88;97906.09;5326110;27;20403;-81
2023/01/30 11:30:02;;;;;;;25.60;10.40;;;;;;;3.83;71.61;97893.94;5298828;27;20099;-81
2023/01/30 11:32:29;;;;;;;22.58;10.88;;;;;;;4.11;70.90;97890.84;5324337;27;20061;-81
2023/01/30 11:35:05;;;;;;;22.40;9.45;;;;;;;4.06;70.41;97888.41;5324480;27;20423;-81
2023/01/30 11:37:34;;;;;;;21.80;9.45;;;;;;;3.80;70.68;97868.47;5325574;27;20094;-81
2023/01/30 11:40:16;;;;;;;20.73;9.25;;;;;;;4.15;70.46;97874.59;5323868;27;20126;-81
2023/01/30 11:42:49;;;;;;;22.98;9.68;;;;;;;3.53;70.34;97858.78;5324553;27;20387;-81
2023/01/30 11:45:20;;;;;;;21.83;9.80;;;;;;;3.53;71.52;97857.06;5324362;27;20052;-81
2023/01/30 11:47:54;;;;;;;22.92;10.15;;;;;;;3.56;72.91;97851.91;5304383;27;20041;-81